Historyczne dane pomiarowe

Dodano dane terminowe – wersja testowa.

Dane z okresu 1951-2019

Wersja bazy: 1.34 [2019-03-16, lista zmian], aktualizacja planowana na 2019-04-15

Dane meteo z obszaru Polski uzyskane na podstawie danych udostępnionych przez Instytut Meteorologii i Gospodarki Wodnej – Państwowy Instytut Badawczy.

 

Wybierz Datę:    

       

TemperaturaWilgotnośćWiatrCiśnienieOpadyŚniegCzas trwania zjawisk
 Stacja t tx tn tng RH VA  wxwx mslp ppp RRR   cm mm wxwxwxwxwxwxwx
1994-08-14 13.6 17.5 10.1--- 4.3 3.7---- 0.0------------
1994-08-13 16.4 20.6 13.8--- 6.7 4.3---- 7.0------------
1994-08-12 17.8 22.6 15.1--- 3.0 1.0---- 0.0------------
1994-08-11 18.1 21.2 16.3--- 8.0 0.7---- 0.6------------
1994-08-10 19.3 26.5 12.4--- 4.7 0.7---- 0.0------------
1994-08-09 18.2 24.5 17.4--- 7.3 1.0---- 16.7------------
1994-08-08 21.6 25.7 17.8--- 8.0 0.3---- 6.5------------
1994-08-07 23.3 29.8 16.6--- 5.7 2.0---- 2.5------------
1994-08-06 25.7 34.0 15.9--- 1.0 3.0---- 0.0------------
1994-08-05 24.5 32.8 14.8--- 2.0 2.7---- 0.0------------
1994-08-04 23.4 29.8 17.1--- 2.0 0.3---- 0.0------------
1994-08-03 24.5 31.0 19.9--- 0.7 1.7---- 0.0------------
1994-08-02 26.9 32.8 20.8--- 0.7 1.7---- 0.0------------
1994-08-01 26.9 36.5 16.4--- 1.0 1.7---- 0.0------------
1994-07-31 27.4 35.0 19.0--- 0.3 1.0---- 0.0------------
1994-07-30 26.3 36.0 15.3--- 1.0 1.0---- 0.0------------
1994-07-29 25.9 35.5 14.2--- 0.3 0.0---- 0.0------------
1994-07-28 27.5 34.7 15.4--- 2.0 1.3---- 0.0------------
1994-07-27 26.6 34.0 14.2--- 2.0 0.3---- 0.0------------
1994-07-26 26.1 33.6 13.4--- 0.3 0.3---- 0.0------------
1994-07-25 24.8 33.0 12.4--- 1.0 0.3---- 0.0------------
1994-07-24 23.0 30.6 11.5--- 0.3 0.3---- 0.0------------
1994-07-23 22.2 29.9 10.5--- 0.7 0.3---- 0.0------------
1994-07-22 21.7 28.0 12.2--- 1.0 0.7---- 0.0------------
1994-07-21 20.4 28.3 8.1--- 0.3 0.3---- 0.0------------
1994-07-20 18.3 24.5 11.3--- 1.7 1.3---- 0.0------------
1994-07-19 18.9 24.5 12.6--- 2.3 2.3---- 0.0------------
1994-07-18 21.6 26.5 13.8--- 0.3 3.0---- 0.0------------
1994-07-17 21.6 28.2 13.7--- 1.0 0.7---- 0.0------------
1994-07-16 22.6 30.5 14.9--- 3.0 1.0---- 0.9------------
1994-07-15 23.4 29.5 16.4--- 1.7 1.7---- 0.0------------
1994-07-14 23.6 31.5 13.9--- 1.0 1.3---- 0.0------------
1994-07-13 23.9 29.3 13.7--- 2.0 1.3---- 0.0------------
1994-07-12 22.6 27.5 15.9--- 3.7 1.3---- 0.0------------
1994-07-11 21.0 27.4 13.5--- 5.7 2.0---- 0.0------------
1994-07-10 18.1 24.4 13.0--- 5.7 1.7---- 0.0------------
1994-07-09 13.9 17.7 12.3--- 6.0 2.0---- 7.0------------
1994-07-08 15.1 21.6 12.6--- 8.0 3.7---- 11.8------------
1994-07-07 19.9 27.0 8.4--- 4.3 2.0---- 6.5------------
1994-07-06 18.8 25.2 7.1--- 2.0 0.3---- 0.0------------
1994-07-05 19.7 27.0 12.6--- 3.0 0.7---- 0.0------------
1994-07-04 22.0 28.5 12.7--- 1.7 0.7---- 0.0------------
1994-07-03 19.3 27.7 8.9--- 2.7 2.3---- 0.0------------
1994-07-02 17.7 25.0 8.8--- 1.7 0.3---- 0.0------------
1994-07-01 17.6 23.0 8.4--- 2.0 3.0---- 0.0------------
1994-06-30 21.3 29.2 18.9--- 2.0 3.0---- 0.0------------
1994-06-29 25.9 32.3 16.9--- 1.0 1.3---- 0.0------------
1994-06-28 23.9 30.0 15.4--- 1.3 1.3---- 0.0------------
1994-06-27 24.8 31.5 14.9--- 1.0 0.3---- 0.0------------
1994-06-26 21.3 30.0 9.1--- 0.7 2.0---- 0.0------------
1994-06-25 15.5 24.0 2.7--- 1.7 1.0---- 0.0------------
1994-06-24 13.6 19.5 3.1--- 2.3 5.0---- 0.0------------
1994-06-23 16.2 22.0 13.6--- 4.0 5.7---- 0.0------------
1994-06-22 18.1 25.0 8.9--- 5.0 5.7---- 0.0------------
1994-06-21 14.8 20.3 4.7--- 2.7 0.3---- 0.0------------
1994-06-20 16.2 20.0 12.0--- 5.0 3.0---- 0.0------------
1994-06-19 16.6 22.2 11.2--- 6.3 3.7---- 0.0------------
1994-06-18 11.4 18.8 2.0--- 6.3 4.3---- 7.8------------
1994-06-17 10.5 13.6 8.1--- 7.3 3.7---- 0.2------------
1994-06-16 9.7 15.7 4.6--- 8.0 3.0---- 2.3------------
210.4 ms

 

Źródłem pochodzenia danych jest Instytut Meteorologii i Gospodarki Wodnej – Państwowy Instytut Badawczy. Dane Instytutu Meteorologii i Gospodarki Wodnej – Państwowego Instytutu Badawczego zostały przetworzone.

Dane źródłowe można odnaleźć na stronie https://dane.imgw.pl